createdAt,value
2024-01-29T00:02:05.744Z,1.308724832214765
2024-01-29T00:05:25.877Z,2.61744966442953
2024-01-29T00:08:46.469Z,2.0939597315436242
2024-01-29T00:12:06.537Z,2.3758389261744965
2024-01-29T00:15:28.270Z,2.1879194630872485
2024-01-29T00:18:48.228Z,1.604026845637584
2024-01-29T00:22:08.505Z,1.4496644295302012
2024-01-29T00:25:29.010Z,0.6711409395973155
2024-01-29T00:28:48.808Z,1.3557046979865772
2024-01-29T00:32:09.562Z,1.1946308724832215
2024-01-29T00:35:29.755Z,3.228187919463087
2024-01-29T00:38:49.806Z,1.4966442953020134
2024-01-29T00:42:21.953Z,1.2483221476510067
2024-01-29T00:45:42.594Z,1.2483221476510067
2024-01-29T00:51:26.264Z,1.9060402684563758
2024-01-29T00:54:46.734Z,1.2483221476510067
2024-01-29T00:58:06.866Z,1.8120805369127517
2024-01-29T01:01:28.670Z,1.825503355704698
2024-01-29T01:04:49.213Z,1.2751677852348993
2024-01-29T01:08:08.489Z,2.1543624161073827
2024-01-29T01:11:28.775Z,2.3758389261744965
2024-01-29T01:14:48.730Z,1.1275167785234899
2024-01-29T01:19:30.477Z,1.7718120805369129
2024-01-29T01:22:52.073Z,1.657718120805369
2024-01-29T01:26:12.717Z,1.651006711409396
2024-01-29T01:29:32.707Z,1.2684563758389262
2024-01-29T01:32:52.731Z,1.3154362416107384
2024-01-29T01:36:13.406Z,2.3221476510067114
2024-01-29T01:39:33.529Z,2.3288590604026846
2024-01-29T01:42:54.135Z,2.5704697986577183
2024-01-29T01:46:15.244Z,0.4966442953020134
2024-01-29T01:49:36.418Z,1.9060402684563758
2024-01-29T01:52:56.716Z,1.9932885906040267
2024-01-29T01:56:17.992Z,3.389261744966443
2024-01-29T01:59:38.272Z,1.8120805369127517
2024-01-29T02:02:58.458Z,2.174496644295302
2024-01-29T02:06:18.521Z,1.3758389261744965
2024-01-29T02:09:38.688Z,1.6174496644295302
2024-01-29T02:12:58.232Z,0.87248322147651
2024-01-29T02:16:18.685Z,0.8859060402684564
2024-01-29T02:21:49.314Z,2.228187919463087
2024-01-29T02:25:09.348Z,1.0335570469798658
2024-01-29T02:28:31.101Z,1.1006711409395973
2024-01-29T02:31:51.064Z,1.610738255033557
2024-01-29T02:35:11.934Z,2.2416107382550337
2024-01-29T02:39:36.741Z,2.3422818791946307
2024-01-29T02:42:57.191Z,1.7181208053691275
2024-01-29T02:46:17.923Z,1.5771812080536913
2024-01-29T02:54:38.878Z,0.9798657718120806
2024-01-29T02:57:59.833Z,1.9328859060402686
2024-01-29T03:01:20.860Z,1.2348993288590604
2024-01-29T03:04:40.737Z,1.691275167785235
2024-01-29T03:08:00.642Z,2.087248322147651
2024-01-29T03:11:21.726Z,2.053691275167785
2024-01-29T03:14:42.184Z,1.9060402684563758
2024-01-29T03:18:02.972Z,1.8389261744966443
2024-01-29T03:21:24.522Z,0.7785234899328859
2024-01-29T03:24:45.677Z,1.6375838926174497
2024-01-29T03:28:05.389Z,0.7785234899328859
2024-01-29T03:31:25.572Z,1.8791946308724832
2024-01-29T03:34:45.942Z,1.8456375838926173
2024-01-29T03:38:06.743Z,2.0671140939597317
2024-01-29T03:41:27.394Z,1.6644295302013423
2024-01-29T03:44:48.422Z,1.7315436241610738
2024-01-29T03:49:27.161Z,1.7852348993288591
2024-01-29T03:52:48.170Z,1.9932885906040267
2024-01-29T03:56:08.998Z,0.6711409395973155
2024-01-29T04:00:17.807Z,1.167785234899329
2024-01-29T04:03:38.187Z,1.5033557046979866
2024-01-29T04:06:59.916Z,1.342281879194631
2024-01-29T04:10:20.544Z,0.738255033557047
2024-01-29T04:13:41.431Z,4.416107382550336
2024-01-29T04:17:02.116Z,1.4228187919463087
2024-01-29T04:20:22.793Z,1.832214765100671
2024-01-29T04:23:42.238Z,2.2751677852348995
2024-01-29T04:27:02.819Z,1.342281879194631
2024-01-29T04:30:23.957Z,0.697986577181208
2024-01-29T04:33:44.489Z,1.8724832214765101
2024-01-29T04:37:05.531Z,1.8456375838926173
2024-01-29T04:40:27.048Z,1.6979865771812082
2024-01-29T04:43:48.468Z,0.348993288590604
2024-01-29T04:47:08.797Z,1.7315436241610738
2024-01-29T04:50:30.109Z,1.8859060402684564
2024-01-29T04:53:50.692Z,1.7986577181208054
2024-01-29T04:57:11.217Z,1.691275167785235
2024-01-29T05:00:31.749Z,1.6979865771812082
2024-01-29T05:03:51.769Z,1.6644295302013423
2024-01-29T05:07:12.817Z,1.5838926174496644
2024-01-29T05:10:33.464Z,0.8456375838926175
2024-01-29T05:13:53.935Z,1.6979865771812082
2024-01-29T05:19:40.678Z,1.516778523489933
2024-01-29T05:23:01.005Z,0.9664429530201343
2024-01-29T05:26:21.682Z,0.738255033557047
2024-01-29T05:29:41.951Z,1.2885906040268456
2024-01-29T05:33:31.609Z,1.8791946308724832
2024-01-29T05:36:51.494Z,0.9664429530201343
2024-01-29T05:40:12.333Z,1.1946308724832215
2024-01-29T05:43:33.592Z,0.87248322147651
2024-01-29T05:46:53.911Z,1.5436241610738255
2024-01-29T05:50:15.382Z,0.48322147651006714
2024-01-29T05:54:03.269Z,0.9530201342281879
2024-01-29T05:57:24.540Z,1.6711409395973154
2024-01-29T06:00:45.229Z,0.5100671140939598
2024-01-29T06:04:05.828Z,0.7785234899328859
2024-01-29T06:07:27.552Z,1.1006711409395973
2024-01-29T06:10:49.410Z,0.785234899328859
2024-01-29T06:14:10.211Z,1.4563758389261745
2024-01-29T06:19:28.746Z,0.42953020134228187
2024-01-29T06:22:49.552Z,2.0268456375838926
2024-01-29T06:26:10.216Z,1.919463087248322
2024-01-29T06:30:59.929Z,0.8859060402684564
2024-01-29T06:34:20.658Z,1.167785234899329
2024-01-29T06:39:40.865Z,1.1812080536912752
2024-01-29T06:45:27.446Z,1.1073825503355705
2024-01-29T06:48:48.635Z,0.9664429530201343
2024-01-29T06:52:12.527Z,1.6241610738255035
2024-01-29T06:55:36.926Z,0.6845637583892618
2024-01-29T06:58:57.692Z,0.8590604026845637
2024-01-29T07:02:18.885Z,1.0335570469798658
2024-01-29T07:05:39.339Z,1.0067114093959733
2024-01-29T07:09:00.464Z,1.1006711409395973
2024-01-29T07:12:21.937Z,3.664429530201342
2024-01-29T07:15:49.175Z,1.2483221476510067
2024-01-29T07:20:46.357Z,0.174496644295302
2024-01-29T07:24:06.936Z,2.0
2024-01-29T07:27:27.384Z,1.6241610738255035
2024-01-29T07:30:47.892Z,1.8926174496644295
2024-01-29T07:34:08.635Z,1.2483221476510067
2024-01-29T07:37:29.496Z,3.2751677852348995
2024-01-29T07:40:49.237Z,1.516778523489933
2024-01-29T07:44:51.957Z,2.751677852348993
2024-01-29T07:50:22.472Z,1.6778523489932886
2024-01-29T07:53:42.752Z,1.832214765100671
2024-01-29T07:57:27.481Z,1.5906040268456376
2024-01-29T08:00:47.884Z,1.3288590604026846
2024-01-29T08:04:08.243Z,3.0201342281879193
2024-01-29T08:07:28.983Z,1.9932885906040267
2024-01-29T08:10:49.868Z,1.4228187919463087
2024-01-29T08:14:09.819Z,1.1812080536912752
2024-01-29T08:19:18.030Z,1.4630872483221478
2024-01-29T08:22:40.619Z,1.610738255033557
2024-01-29T08:26:00.888Z,1.6308724832214765
2024-01-29T08:29:21.749Z,4.053691275167785
2024-01-29T08:32:41.653Z,1.6241610738255035
2024-01-29T08:38:20.414Z,1.7315436241610738
2024-01-29T08:41:40.725Z,1.1812080536912752
2024-01-29T08:45:01.092Z,1.5838926174496644
2024-01-29T08:48:22.068Z,1.2885906040268456
2024-01-29T08:51:42.277Z,2.0268456375838926
2024-01-29T08:55:02.498Z,1.919463087248322
2024-01-29T08:58:25.412Z,3.0134228187919465
2024-01-29T09:04:14.393Z,2.2013422818791946
2024-01-29T09:07:34.788Z,2.2416107382550337
2024-01-29T09:12:52.789Z,1.2885906040268456
2024-01-29T09:17:43.595Z,1.2080536912751678
2024-01-29T09:21:03.533Z,1.9060402684563758
2024-01-29T09:24:23.705Z,2.1476510067114094
2024-01-29T09:27:44.696Z,1.7046979865771812
2024-01-29T09:31:05.093Z,1.825503355704698
2024-01-29T09:34:26.581Z,1.3020134228187918
2024-01-29T09:47:05.652Z,1.8657718120805369
2024-01-29T09:50:26.259Z,2.4093959731543624
2024-01-29T09:53:46.469Z,1.832214765100671
2024-01-29T09:57:06.982Z,2.0671140939597317
2024-01-29T10:00:29.908Z,1.9463087248322148
2024-01-29T10:03:51.376Z,1.2080536912751678
2024-01-29T10:07:11.677Z,0.8993288590604027
2024-01-29T10:10:32.732Z,0.9664429530201343
2024-01-29T10:13:53.006Z,0.9261744966442953
2024-01-29T10:17:13.846Z,1.2483221476510067
2024-01-29T10:23:08.692Z,2.2684563758389262
2024-01-29T10:26:29.864Z,1.6778523489932886
2024-01-29T10:29:50.079Z,3.1006711409395975
2024-01-29T10:33:10.855Z,1.1476510067114094
2024-01-29T10:38:00.109Z,1.395973154362416
2024-01-29T10:41:20.903Z,2.2550335570469797
2024-01-29T10:44:41.070Z,1.8926174496644295
2024-01-29T10:48:01.266Z,2.033557046979866
2024-01-29T10:51:21.274Z,2.161073825503356
2024-01-29T10:54:41.883Z,3.221476510067114
2024-01-29T10:58:03.532Z,0.7248322147651006
2024-01-29T11:02:03.807Z,1.691275167785235
2024-01-29T11:05:25.767Z,1.0335570469798658
2024-01-29T11:08:46.511Z,1.1543624161073827
2024-01-29T11:12:06.802Z,2.3221476510067114
2024-01-29T11:15:27.600Z,2.1543624161073827
2024-01-29T11:19:03.550Z,1.8791946308724832
2024-01-29T11:24:39.020Z,1.3154362416107384
2024-01-29T11:27:59.083Z,0.7516778523489933
2024-01-29T11:35:54.861Z,1.342281879194631
2024-01-29T11:39:14.644Z,1.9731543624161074
2024-01-29T11:42:35.143Z,1.5369127516778522
2024-01-29T11:45:54.732Z,2.2885906040268456
2024-01-29T11:49:14.920Z,2.1543624161073827
2024-01-29T11:52:35.380Z,2.1476510067114094
2024-01-29T11:55:55.665Z,2.1073825503355703
2024-01-29T11:59:46.698Z,2.4295302013422817
2024-01-29T12:03:07.562Z,2.315436241610738
2024-01-29T12:06:28.691Z,1.919463087248322
2024-01-29T12:09:48.148Z,1.7583892617449663
2024-01-29T12:13:08.693Z,3.12751677852349
2024-01-29T12:17:06.415Z,2.7583892617449663
2024-01-29T12:20:26.394Z,2.7651006711409396
2024-01-29T12:23:52.358Z,3.2348993288590604
2024-01-29T12:27:13.127Z,2.577181208053691
2024-01-29T12:30:33.080Z,3.8120805369127515
2024-01-29T12:33:53.599Z,2.2818791946308723
2024-01-29T12:37:14.159Z,3.0604026845637584
2024-01-29T12:40:34.141Z,5.87248322147651
2024-01-29T12:43:54.020Z,3.4630872483221475
2024-01-29T12:47:14.735Z,3.6577181208053693
2024-01-29T12:50:34.618Z,2.2818791946308723
2024-01-29T12:53:55.232Z,2.5838926174496644
2024-01-29T13:00:36.413Z,3.87248322147651
2024-01-29T13:03:56.438Z,3.38255033557047
2024-01-29T13:07:18.441Z,0.7919463087248322
2024-01-29T13:10:38.709Z,3.563758389261745
2024-01-29T13:13:59.831Z,3.120805369127517
2024-01-29T13:17:20.242Z,1.919463087248322
2024-01-29T13:21:24.415Z,2.134228187919463
2024-01-29T13:24:45.008Z,3.38255033557047
2024-01-29T13:30:03.463Z,2.8456375838926173
2024-01-29T13:33:24.568Z,3.7583892617449663
2024-01-29T13:36:45.242Z,3.61744966442953
2024-01-29T13:40:05.637Z,2.040268456375839
2024-01-29T13:43:26.525Z,3.3691275167785233
2024-01-29T13:46:47.131Z,3.7583892617449663
2024-01-29T13:50:07.500Z,2.3959731543624163
2024-01-29T13:53:28.601Z,4.8389261744966445
2024-01-29T13:56:48.893Z,2.8322147651006713
2024-01-29T14:00:09.282Z,1.342281879194631
2024-01-29T14:03:30.358Z,1.919463087248322
2024-01-29T14:06:50.668Z,3.7248322147651005
2024-01-29T14:10:10.924Z,5.865771812080537
2024-01-29T14:13:31.564Z,5.348993288590604
2024-01-29T14:16:51.892Z,4.355704697986577
2024-01-29T14:20:12.766Z,2.3288590604026846
2024-01-29T14:23:33.741Z,5.241610738255034
2024-01-29T14:26:54.017Z,3.6912751677852347
2024-01-29T14:30:14.765Z,4.456375838926174
2024-01-29T14:42:13.414Z,3.771812080536913
2024-01-29T14:45:34.340Z,5.825503355704698
2024-01-29T14:48:54.458Z,4.026845637583893
2024-01-29T14:52:14.965Z,5.644295302013423
2024-01-29T14:55:36.476Z,5.382550335570469
2024-01-29T14:58:56.964Z,4.429530201342282
2024-01-29T15:02:17.133Z,5.932885906040268
2024-01-29T15:05:38.532Z,5.23489932885906
2024-01-29T15:08:58.584Z,5.409395973154362
2024-01-29T15:15:06.685Z,6.617449664429531
2024-01-29T15:18:26.942Z,5.604026845637584
2024-01-29T15:21:47.150Z,3.838926174496644
2024-01-29T15:25:07.085Z,3.771812080536913
2024-01-29T15:28:27.912Z,5.87248322147651
2024-01-29T15:31:48.920Z,6.503355704697986
2024-01-29T15:35:09.371Z,5.23489932885906
2024-01-29T15:38:30.290Z,6.885906040268456
2024-01-29T15:46:42.022Z,6.23489932885906
2024-01-29T15:50:02.627Z,4.805369127516778
2024-01-29T15:53:23.571Z,6.395973154362416
2024-01-29T15:56:43.934Z,7.456375838926174
2024-01-29T16:02:29.129Z,11.221476510067115
2024-01-29T16:05:49.373Z,6.644295302013423
2024-01-29T16:09:59.320Z,8.704697986577182
2024-01-29T16:13:20.168Z,10.355704697986576
2024-01-29T16:16:41.267Z,8.74496644295302
2024-01-29T16:20:01.555Z,13.228187919463087
2024-01-29T16:27:59.061Z,10.020134228187919
2024-01-29T16:32:21.617Z,10.053691275167786
2024-01-29T16:36:46.626Z,8.906040268456376
2024-01-29T16:40:24.638Z,10.53020134228188
2024-01-29T16:43:45.697Z,12.302013422818792
2024-01-29T16:47:05.978Z,14.21476510067114
2024-01-29T16:50:26.651Z,12.087248322147651
2024-01-29T16:53:47.195Z,11.463087248322148
2024-01-29T16:57:07.780Z,7.516778523489933
2024-01-29T17:00:28.762Z,8.261744966442953
2024-01-29T17:03:48.912Z,9.89261744966443
2024-01-29T17:09:30.645Z,9.013422818791947
2024-01-29T17:15:10.477Z,10.724832214765101
2024-01-29T17:20:48.968Z,9.275167785234899
2024-01-29T17:24:22.964Z,9.248322147651006
2024-01-29T17:27:44.147Z,8.953020134228188
2024-01-29T17:31:04.152Z,7.691275167785235
2024-01-29T17:34:25.314Z,7.973154362416107
2024-01-29T17:37:46.208Z,7.275167785234899
2024-01-29T17:41:06.199Z,7.214765100671141
2024-01-29T17:44:26.806Z,7.557046979865772
2024-01-29T17:47:46.625Z,8.21476510067114
2024-01-29T17:51:06.657Z,8.416107382550335
2024-01-29T17:54:27.749Z,10.818791946308725
2024-01-29T17:57:48.088Z,5.416107382550336
2024-01-29T18:01:09.180Z,10.409395973154362
2024-01-29T18:04:30.167Z,7.221476510067114
2024-01-29T18:07:51.113Z,8.429530201342281
2024-01-29T18:11:11.782Z,8.25503355704698
2024-01-29T18:14:33.168Z,8.731543624161073
2024-01-29T18:17:53.667Z,9.53020134228188
2024-01-29T18:22:59.085Z,9.194630872483222
2024-01-29T18:26:20.181Z,9.885906040268456
2024-01-29T18:29:40.628Z,8.093959731543624
2024-01-29T18:33:01.399Z,10.442953020134228
2024-01-29T18:36:21.896Z,11.724832214765101
2024-01-29T18:40:06.108Z,10.228187919463087
2024-01-29T18:43:27.112Z,12.724832214765101
2024-01-29T18:46:48.000Z,11.986577181208053
2024-01-29T18:50:08.988Z,6.805369127516778
2024-01-29T18:54:22.043Z,7.23489932885906
2024-01-29T18:59:18.390Z,9.36241610738255
2024-01-29T19:05:43.007Z,14.0
2024-01-29T19:09:03.351Z,11.369127516778523
2024-01-29T19:12:24.316Z,16.469798657718123
2024-01-29T19:15:44.997Z,18.114093959731544
2024-01-29T19:19:05.417Z,12.006711409395972
2024-01-29T19:22:26.998Z,9.879194630872483
2024-01-29T19:25:46.920Z,13.429530201342281
2024-01-29T19:29:06.899Z,15.248322147651006
2024-01-29T19:32:27.748Z,10.557046979865772
2024-01-29T19:35:47.528Z,12.281879194630873
2024-01-29T19:39:07.598Z,13.40268456375839
2024-01-29T19:45:48.360Z,9.087248322147651
2024-01-29T19:49:08.294Z,10.718120805369127
2024-01-29T19:52:30.203Z,12.671140939597315
2024-01-29T19:56:10.416Z,11.865771812080537
2024-01-29T19:59:30.840Z,10.221476510067115
2024-01-29T20:02:50.849Z,9.691275167785236
2024-01-29T20:06:10.894Z,9.966442953020135
2024-01-29T20:09:32.007Z,7.691275167785235
2024-01-29T20:12:52.049Z,12.859060402684564
2024-01-29T20:16:12.773Z,12.812080536912752
2024-01-29T20:19:33.620Z,12.724832214765101
2024-01-29T20:22:54.525Z,14.335570469798657
2024-01-29T20:26:15.973Z,12.912751677852349
2024-01-29T20:29:36.573Z,13.073825503355705
2024-01-29T20:34:36.506Z,11.711409395973154
2024-01-29T20:37:57.195Z,10.342281879194632
2024-01-29T20:42:21.402Z,14.879194630872483
2024-01-29T20:46:57.804Z,10.167785234899329
2024-01-29T20:50:18.516Z,14.939597315436242
2024-01-29T20:53:39.670Z,16.78523489932886
2024-01-29T21:00:06.810Z,14.570469798657719
2024-01-29T21:03:27.144Z,14.228187919463087
2024-01-29T21:06:46.890Z,13.63758389261745
2024-01-29T21:13:23.232Z,12.174496644295303
2024-01-29T21:16:44.047Z,10.12751677852349
2024-01-29T21:20:05.159Z,14.006711409395972
2024-01-29T21:23:25.632Z,12.95973154362416
2024-01-29T21:26:46.512Z,13.436241610738255
2024-01-29T21:30:07.068Z,13.979865771812081
2024-01-29T21:33:27.953Z,12.134228187919463
2024-01-29T21:36:49.053Z,14.758389261744966
2024-01-29T21:40:09.550Z,12.778523489932885
2024-01-29T21:44:09.774Z,15.335570469798657
2024-01-29T21:47:30.715Z,12.120805369127517
2024-01-29T21:50:51.853Z,12.21476510067114
2024-01-29T21:54:12.946Z,14.966442953020135
2024-01-29T21:57:33.611Z,12.738255033557047
2024-01-29T22:00:55.408Z,15.275167785234899
2024-01-29T22:04:17.070Z,12.966442953020135
2024-01-29T22:07:37.411Z,12.859060402684564
2024-01-29T22:10:57.818Z,15.04026845637584
2024-01-29T22:14:18.492Z,14.979865771812081
2024-01-29T22:18:26.668Z,14.503355704697986
2024-01-29T22:21:46.931Z,14.181208053691275
2024-01-29T22:25:07.236Z,13.026845637583893
2024-01-29T22:28:28.026Z,16.08724832214765
2024-01-29T22:31:48.567Z,15.429530201342281
2024-01-29T22:35:08.997Z,14.275167785234899
2024-01-29T22:38:29.739Z,18.71812080536913
2024-01-29T22:41:49.983Z,17.583892617449663
2024-01-29T22:45:10.671Z,16.040268456375838
2024-01-29T22:48:31.126Z,14.95973154362416
2024-01-29T22:51:52.093Z,14.422818791946309
2024-01-29T22:55:12.858Z,13.845637583892618
2024-01-29T22:58:33.580Z,16.13422818791946
2024-01-29T23:01:54.111Z,13.51006711409396
2024-01-29T23:05:14.700Z,14.516778523489933
2024-01-29T23:09:10.606Z,20.483221476510067
2024-01-29T23:12:30.864Z,16.06040268456376
2024-01-29T23:15:51.458Z,12.59731543624161
2024-01-29T23:19:22.901Z,9.979865771812081
2024-01-29T23:22:43.237Z,12.295302013422818
2024-01-29T23:27:08.483Z,9.194630872483222
2024-01-29T23:31:51.122Z,9.778523489932885
2024-01-29T23:35:11.207Z,10.812080536912752
2024-01-29T23:44:14.044Z,13.677852348993289
2024-01-29T23:47:34.613Z,9.523489932885907
2024-01-29T23:50:54.800Z,12.302013422818792
2024-01-29T23:54:16.328Z,15.026845637583893
2024-01-29T23:57:36.552Z,12.013422818791947
